Decoded Metar for KQBL ( in _UNIDENTIFIED) (IATA:) | Meteo·Mobile Aviation Weather
aviador You're here:

KQBL Decoded Metar

in _UNIDENTIFIED
Report Time2019-02-16 06:41:00
UTC Time2019-02-16 06:59:28
Flight Rules mvfr MVFR
WindCalm
Visibility9999 m
Phenomena:N/A
Clouds:Broken 023 Hf
Broken 060 Hf
Expected CloudBase > 400 ft AGL from Temp-Dew spread
Ceiling2,300 ft
Temp18°C
Dew Point17°C (94% RH)
QNH1012 hPa
Raw Report
SPECI KQBL 160641Z AUTO 00000KT 8SM BKN023 BKN060 18/17 A2987 RMK AO2
SLP114 WND DATA ESTMD=

Extra information for KQBL:More info

Metar Taf Metar & Taf Last 4 Metars F.Rules Stats Wind Profile Meteogram Temp Stats Metar ALERT Operation Metar Decoded Social comments